Time;durP1;ratioP1;P1;durP2;ratioP2;P2;SDS_P1;SDS_P2;PMS_P1;PMS_P2;Temp;Humidity;BMP_temperature;BMP_pressure;BME280_temperature;BME280_humidity;BME280_pressure;Samples;Min_cycle;Max_cycle;Signal;HPM_P1;HPM_P2
2024/02/22 00:02:00;;;;;;;37.40;18.60;;;;;;;6.26;93.56;99996.36;111152;1212;98974;-67
2024/02/22 00:04:25;;;;;;;50.40;19.20;;;;;;;6.26;93.54;99987.31;111005;1210;139098;-67
2024/02/22 00:06:50;;;;;;;41.90;17.20;;;;;;;6.26;93.68;99985.02;111034;1206;99156;-66
2024/02/22 00:09:16;;;;;;;37.70;17.30;;;;;;;6.24;93.50;99979.61;111189;1209;99882;-67
2024/02/22 00:11:41;;;;;;;34.20;15.90;;;;;;;6.22;93.60;99976.46;111192;1211;138743;-67
2024/02/22 00:14:07;;;;;;;43.50;18.10;;;;;;;6.22;93.71;99971.15;111104;1206;99039;-67
2024/02/22 00:16:34;;;;;;;40.80;16.70;;;;;;;6.23;93.63;99964.20;110973;1206;139328;-66
2024/02/22 00:19:00;;;;;;;36.00;16.50;;;;;;;6.24;93.73;99966.11;111125;1212;98943;-68
2024/02/22 00:21:27;;;;;;;44.10;17.10;;;;;;;6.23;93.65;99961.18;111075;1209;138918;-68
2024/02/22 00:23:53;;;;;;;44.40;16.90;;;;;;;6.18;93.47;99957.98;111135;1212;108387;-68
2024/02/22 00:26:26;;;;;;;37.20;15.90;;;;;;;6.19;93.73;99946.95;111109;1206;98955;-68
2024/02/22 00:28:51;;;;;;;41.60;17.60;;;;;;;6.18;93.60;99941.98;111065;1212;138829;-68
2024/02/22 00:31:19;;;;;;;36.00;16.80;;;;;;;6.18;93.71;99942.16;111143;1206;99006;-66
2024/02/22 00:33:45;;;;;;;41.20;18.00;;;;;;;6.17;93.64;99936.55;110974;1206;138763;-66
2024/02/22 00:36:12;;;;;;;44.10;19.60;;;;;;;6.16;93.68;99926.66;111055;1206;99078;-68
2024/02/22 00:38:38;;;;;;;35.40;17.40;;;;;;;6.16;93.61;99925.07;111214;1212;98937;-66
2024/02/22 00:41:06;;;;;;;38.00;17.50;;;;;;;6.14;93.63;99922.84;111015;1206;138576;-67
2024/02/22 00:43:31;;;;;;;39.10;17.10;;;;;;;6.11;93.56;99921.34;111343;1211;100024;-67
2024/02/22 00:45:57;;;;;;;38.60;16.70;;;;;;;6.09;93.50;99917.68;110934;1212;139135;-67
2024/02/22 00:48:26;;;;;;;49.20;18.30;;;;;;;6.07;93.61;99912.27;111207;1209;99030;-67
2024/02/22 00:50:51;;;;;;;44.50;17.90;;;;;;;6.03;93.54;99907.98;111104;1219;112586;-66
2024/02/22 00:53:19;;;;;;;39.10;17.10;;;;;;;6.03;93.67;99903.73;111025;1212;139371;-67
2024/02/22 00:55:44;;;;;;;39.60;18.00;;;;;;;6.01;93.53;99898.31;111164;1206;98955;-67
2024/02/22 00:58:10;;;;;;;43.40;18.10;;;;;;;5.96;93.42;99897.09;110990;1212;139407;-66
2024/02/22 01:00:36;;;;;;;38.90;16.80;;;;;;;5.95;93.61;99897.30;111107;1212;100413;-67
2024/02/22 01:03:03;;;;;;;38.40;17.30;;;;;;;5.95;93.64;99891.97;111170;1206;99134;-67
2024/02/22 01:05:28;;;;;;;38.80;15.80;;;;;;;5.94;93.58;99885.80;111166;1206;138541;-67
2024/02/22 01:07:53;;;;;;;43.40;18.70;;;;;;;5.93;93.64;99878.39;111156;1207;98943;-67
2024/02/22 01:10:19;;;;;;;39.80;16.50;;;;;;;5.93;93.68;99873.77;110685;1212;138849;-67
2024/02/22 01:12:46;;;;;;;41.00;17.40;;;;;;;5.92;93.56;99870.27;111273;1207;99111;-67
2024/02/22 01:15:12;;;;;;;34.70;16.80;;;;;;;5.91;93.68;99862.34;111170;1212;99041;-67
2024/02/22 01:17:37;;;;;;;37.30;17.40;;;;;;;5.89;93.81;99858.30;111077;1206;139263;-67
2024/02/22 01:20:04;;;;;;;43.50;18.50;;;;;;;5.91;93.82;99854.52;111192;1210;99003;-67
2024/02/22 01:22:30;;;;;;;43.70;16.80;;;;;;;5.92;93.81;99850.23;111135;1210;138943;-67
2024/02/22 01:24:55;;;;;;;39.50;18.50;;;;;;;5.94;93.87;99847.51;111084;1212;99054;-67
2024/02/22 01:27:20;;;;;;;31.90;16.10;;;;;;;5.95;93.78;99846.77;111244;1211;99112;-67
2024/02/22 01:29:46;;;;;;;37.00;16.40;;;;;;;5.96;93.87;99846.55;111052;1212;139019;-67
2024/02/22 01:32:11;;;;;;;42.70;17.50;;;;;;;5.98;93.96;99843.09;111174;1206;99079;-67
2024/02/22 01:34:36;;;;;;;31.70;15.50;;;;;;;5.99;93.90;99836.66;111069;1206;139227;-66
2024/02/22 01:37:01;;;;;;;32.20;15.20;;;;;;;5.99;93.83;99836.30;111122;1206;99004;-67
2024/02/22 01:39:27;;;;;;;39.70;15.80;;;;;;;5.99;93.88;99828.70;111208;1219;99035;-66
2024/02/22 01:41:52;;;;;;;34.80;15.90;;;;;;;6.01;93.99;99818.69;110913;1206;138635;-66
2024/02/22 01:44:18;;;;;;;36.50;14.90;;;;;;;6.01;93.95;99820.65;111270;1206;99325;-67
2024/02/22 01:46:44;;;;;;;39.10;16.00;;;;;;;6.03;94.05;99813.27;111083;1206;139363;-67
2024/02/22 01:49:10;;;;;;;31.40;14.40;;;;;;;6.04;94.08;99806.66;111141;1212;98967;-67
2024/02/22 01:51:35;;;;;;;34.00;16.50;;;;;;;6.04;93.99;99802.59;111026;1206;139594;-67
2024/02/22 01:54:02;;;;;;;29.40;14.10;;;;;;;6.04;93.95;99800.31;111253;1209;113130;-67
2024/02/22 01:56:28;;;;;;;34.90;16.10;;;;;;;6.05;93.96;99797.23;111242;1206;97801;-67
2024/02/22 01:58:54;;;;;;;31.90;15.40;;;;;;;6.05;93.94;99796.53;111005;1212;139101;-67
2024/02/22 02:01:21;;;;;;;31.90;14.70;;;;;;;6.05;94.18;99795.80;111181;1206;98930;-67
2024/02/22 02:03:46;;;;;;;39.90;16.10;;;;;;;6.08;94.26;99790.38;111131;1210;141819;-67
2024/02/22 02:06:12;;;;;;;36.80;15.20;;;;;;;6.09;93.97;99783.23;111166;1212;98997;-67
2024/02/22 02:08:37;;;;;;;35.90;15.30;;;;;;;6.10;94.12;99779.32;111127;1206;99012;-67
2024/02/22 02:11:04;;;;;;;32.10;15.10;;;;;;;6.10;94.04;99775.42;111023;1206;141659;-67
2024/02/22 02:13:29;;;;;;;33.80;15.40;;;;;;;6.06;93.77;99767.04;111205;1206;99064;-67
2024/02/22 02:15:55;;;;;;;37.50;14.90;;;;;;;6.05;94.03;99764.45;111025;1212;138781;-67
2024/02/22 02:18:20;;;;;;;30.90;14.30;;;;;;;6.04;93.99;99761.81;111125;1206;98933;-67
2024/02/22 02:20:58;;;;;;;33.90;13.70;;;;;;;6.03;93.87;99759.93;111124;1206;99038;-67
2024/02/22 02:23:45;;;;;;;30.60;15.20;;;;;;;6.01;93.86;99761.75;111069;1210;138696;-67
2024/02/22 02:26:13;;;;;;;33.60;14.30;;;;;;;5.99;93.82;99759.15;111133;1212;99954;-67
2024/02/22 02:28:38;;;;;;;34.40;14.20;;;;;;;6.00;93.86;99753.65;111115;1206;139394;-67
2024/02/22 02:31:03;;;;;;;31.80;13.90;;;;;;;5.98;93.90;99746.77;111073;1206;98945;-67
2024/02/22 02:33:29;;;;;;;39.10;14.60;;;;;;;5.98;93.86;99743.09;111316;1206;98919;-67
2024/02/22 02:35:54;;;;;;;29.00;13.40;;;;;;;5.97;93.97;99739.91;111002;1206;138410;-67
2024/02/22 02:38:21;;;;;;;31.50;15.60;;;;;;;5.98;93.98;99739.70;111212;1206;99029;-67
2024/02/22 02:40:46;;;;;;;30.40;14.30;;;;;;;5.98;93.86;99731.91;110962;1211;138474;-67
2024/02/22 02:43:12;;;;;;;28.70;13.80;;;;;;;5.97;94.03;99721.84;111132;1210;99080;-67
2024/02/22 02:45:37;;;;;;;31.10;13.50;;;;;;;5.97;93.97;99718.30;111126;1212;138956;-66
2024/02/22 02:48:02;;;;;;;34.10;13.50;;;;;;;5.96;93.88;99711.96;111143;1206;97593;-66
2024/02/22 02:50:27;;;;;;;24.80;13.50;;;;;;;5.94;93.86;99708.49;111250;1206;98921;-66
2024/02/22 02:52:53;;;;;;;28.80;13.40;;;;;;;5.93;93.91;99704.27;111027;1206;138576;-66
2024/02/22 02:55:19;;;;;;;27.30;13.60;;;;;;;5.93;93.96;99701.77;111164;1206;98943;-66
2024/02/22 02:57:45;;;;;;;27.90;12.30;;;;;;;5.94;93.88;99698.05;111095;1212;138930;-66
2024/02/22 03:00:14;;;;;;;28.90;14.00;;;;;;;5.94;93.94;99693.23;111119;1212;113043;-65
2024/02/22 03:02:40;;;;;;;31.90;13.60;;;;;;;5.94;93.99;99687.02;111195;1208;100080;-66
2024/02/22 03:05:07;;;;;;;26.80;13.50;;;;;;;5.95;93.97;99686.81;111059;1206;138912;-66
2024/02/22 03:07:33;;;;;;;30.60;12.60;;;;;;;5.96;93.93;99685.89;111155;1206;99609;-66
2024/02/22 03:09:58;;;;;;;34.40;14.80;;;;;;;5.96;94.04;99683.56;111040;1206;139157;-66
2024/02/22 03:12:24;;;;;;;26.60;12.60;;;;;;;5.98;94.10;99678.70;111247;1211;100079;-66
2024/02/22 03:14:50;;;;;;;25.10;12.50;;;;;;;6.00;94.13;99675.25;111133;1209;98987;-66
2024/02/22 03:17:17;;;;;;;27.20;12.80;;;;;;;6.01;94.01;99674.49;111092;1206;138774;-66
2024/02/22 03:19:42;;;;;;;26.10;11.50;;;;;;;6.02;94.10;99670.20;111199;1206;112416;-66
2024/02/22 03:22:07;;;;;;;28.80;12.00;;;;;;;6.04;94.21;99670.83;111018;1212;140064;-66
2024/02/22 03:24:33;;;;;;;27.60;11.30;;;;;;;6.04;93.93;99662.86;111207;1206;98924;-66
2024/02/22 03:26:59;;;;;;;29.00;12.60;;;;;;;6.05;94.06;99660.17;111178;1206;96849;-66
2024/02/22 03:29:25;;;;;;;26.60;12.10;;;;;;;6.05;94.02;99657.83;111093;1212;138915;-66
2024/02/22 03:31:51;;;;;;;26.90;11.50;;;;;;;6.07;94.12;99647.86;111191;1206;98951;-66
2024/02/22 03:34:16;;;;;;;25.90;13.40;;;;;;;6.08;94.15;99645.86;111048;1207;139041;-66
2024/02/22 03:36:41;;;;;;;28.00;12.40;;;;;;;6.09;94.08;99645.82;111257;1212;99058;-66
2024/02/22 03:39:11;;;;;;;29.10;11.70;;;;;;;6.10;94.10;99644.88;111104;1212;99907;-67
2024/02/22 03:41:37;;;;;;;29.60;11.60;;;;;;;6.10;94.07;99641.33;111087;1206;138983;-66
2024/02/22 03:44:03;;;;;;;25.30;11.80;;;;;;;6.11;94.11;99634.91;111112;1206;98467;-66
2024/02/22 03:46:28;;;;;;;24.10;11.90;;;;;;;6.11;94.10;99633.30;111113;1212;138956;-67
2024/02/22 03:48:53;;;;;;;21.20;11.10;;;;;;;6.12;94.14;99636.78;111117;1209;99075;-66
2024/02/22 03:51:18;;;;;;;25.40;10.80;;;;;;;6.13;94.07;99627.38;111226;1208;98941;-66
2024/02/22 03:53:44;;;;;;;27.80;11.00;;;;;;;6.14;94.15;99624.83;111101;1210;139330;-66
2024/02/22 03:56:10;;;;;;;23.70;10.70;;;;;;;6.16;94.10;99620.30;111055;1210;99296;-66
2024/02/22 03:58:37;;;;;;;25.90;11.10;;;;;;;6.15;94.15;99614.33;111084;1206;139649;-66
2024/02/22 04:01:03;;;;;;;23.80;10.40;;;;;;;6.17;94.19;99610.52;111100;1206;98912;-67
2024/02/22 04:03:28;;;;;;;26.40;11.60;;;;;;;6.19;94.20;99609.91;111145;1211;98914;-66
2024/02/22 04:05:54;;;;;;;29.30;11.00;;;;;;;6.19;94.21;99605.29;111052;1206;139577;-66
2024/02/22 04:08:19;;;;;;;22.50;10.20;;;;;;;6.19;94.11;99606.71;111139;1206;99038;-66
2024/02/22 04:10:44;;;;;;;24.60;10.50;;;;;;;6.20;94.02;99603.13;111076;1206;139056;-66
2024/02/22 04:13:11;;;;;;;20.80;9.70;;;;;;;6.19;94.12;99601.23;111053;1213;110998;-66
2024/02/22 04:15:37;;;;;;;21.90;10.80;;;;;;;6.21;94.00;99600.45;111019;1209;138915;-66
2024/02/22 04:18:02;;;;;;;21.30;10.50;;;;;;;6.22;94.08;99599.70;111178;1206;99073;-67
2024/02/22 04:20:28;;;;;;;23.50;10.90;;;;;;;6.23;94.01;99595.73;111188;1206;99012;-66
2024/02/22 04:22:53;;;;;;;27.70;10.60;;;;;;;6.23;94.12;99593.09;110971;1211;139416;-66
2024/02/22 04:25:18;;;;;;;22.60;10.30;;;;;;;6.25;94.09;99588.05;111179;1210;99011;-66
2024/02/22 04:27:44;;;;;;;20.10;9.70;;;;;;;6.25;94.01;99584.31;110929;1212;138838;-66
2024/02/22 04:30:12;;;;;;;17.20;9.20;;;;;;;6.25;94.06;99576.66;111024;1211;99620;-66
2024/02/22 04:32:38;;;;;;;21.90;10.70;;;;;;;6.26;94.05;99574.34;111161;1209;99055;-66
2024/02/22 04:35:03;;;;;;;22.20;9.30;;;;;;;6.28;94.04;99571.95;111050;1210;139236;-66
2024/02/22 04:37:29;;;;;;;21.20;9.70;;;;;;;6.29;94.07;99573.48;111104;1209;98938;-66
2024/02/22 04:39:55;;;;;;;24.90;9.40;;;;;;;6.29;94.04;99570.83;110999;1206;139193;-66
2024/02/22 04:42:20;;;;;;;25.10;10.30;;;;;;;6.30;94.01;99563.48;111184;1206;99045;-66
2024/02/22 04:44:45;;;;;;;21.70;9.70;;;;;;;6.32;94.02;99561.66;111070;1206;99062;-66
2024/02/22 04:47:12;;;;;;;17.10;9.10;;;;;;;6.33;93.96;99558.06;110971;1206;138727;-66
2024/02/22 04:49:38;;;;;;;21.70;9.50;;;;;;;6.34;93.99;99549.50;111248;1206;99050;-66
2024/02/22 04:52:05;;;;;;;17.80;9.20;;;;;;;6.35;94.01;99547.52;111020;1206;140047;-66
2024/02/22 04:54:32;;;;;;;23.10;9.30;;;;;;;6.36;94.06;99533.80;111217;1206;107496;-66
2024/02/22 04:56:58;;;;;;;17.90;8.70;;;;;;;6.38;93.98;99529.09;111090;1209;97426;-66
2024/02/22 04:59:23;;;;;;;16.00;8.40;;;;;;;6.38;93.91;99519.68;111081;1206;139467;-66
2024/02/22 05:01:49;;;;;;;22.20;9.50;;;;;;;6.38;93.92;99516.13;111159;1209;99803;-66
2024/02/22 05:04:15;;;;;;;24.70;9.50;;;;;;;6.38;94.00;99510.79;111069;1206;139047;-66
2024/02/22 05:06:40;;;;;;;18.20;8.30;;;;;;;6.38;93.95;99512.57;111248;1206;98948;-67
2024/02/22 05:09:05;;;;;;;20.10;9.10;;;;;;;6.39;93.81;99504.19;111138;1206;112956;-67
2024/02/22 05:11:30;;;;;;;17.50;8.80;;;;;;;6.40;93.88;99501.14;110969;1212;139394;-67
2024/02/22 05:13:57;;;;;;;20.80;9.00;;;;;;;6.41;93.90;99497.89;111061;1211;98936;-67
2024/02/22 05:16:24;;;;;;;20.50;8.40;;;;;;;6.42;93.83;99493.23;111018;1209;139158;-67
2024/02/22 05:18:49;;;;;;;15.40;7.50;;;;;;;6.44;93.79;99494.39;111229;1206;99227;-67
2024/02/22 05:21:14;;;;;;;20.20;8.60;;;;;;;6.45;93.85;99489.73;111167;1211;96930;-65
2024/02/22 05:23:40;;;;;;;30.20;9.30;;;;;;;6.46;93.81;99486.64;111009;1206;138747;-68
2024/02/22 05:26:05;;;;;;;17.70;8.90;;;;;;;6.48;93.91;99481.27;111123;1206;99023;-67
2024/02/22 05:28:30;;;;;;;19.40;9.20;;;;;;;6.49;93.78;99482.29;111130;1208;139254;-67
2024/02/22 05:30:55;;;;;;;23.30;8.50;;;;;;;6.50;93.79;99483.63;111110;1206;98925;-66
2024/02/22 05:33:21;;;;;;;15.50;7.50;;;;;;;6.51;93.77;99477.90;111249;1209;98952;-66
2024/02/22 05:35:46;;;;;;;19.00;8.20;;;;;;;6.52;93.64;99472.38;111025;1206;138786;-66
2024/02/22 05:38:11;;;;;;;17.20;7.40;;;;;;;6.54;93.73;99468.73;111116;1211;99068;-66
2024/02/22 05:40:38;;;;;;;20.40;7.00;;;;;;;6.56;93.70;99463.85;111015;1208;138874;-67
2024/02/22 05:43:03;;;;;;;21.10;8.10;;;;;;;6.57;93.70;99457.08;111070;1206;99621;-67
2024/02/22 05:45:42;;;;;;;19.00;8.30;;;;;;;6.58;93.64;99448.15;111072;1206;98929;-66
2024/02/22 05:48:08;;;;;;;18.30;7.10;;;;;;;6.59;93.66;99445.45;111042;1206;99892;-66
2024/02/22 05:50:35;;;;;;;19.80;8.10;;;;;;;6.60;93.58;99444.33;111166;1206;98937;-66
2024/02/22 05:53:00;;;;;;;13.10;7.50;;;;;;;6.61;93.51;99442.34;110970;1207;138742;-66
2024/02/22 05:55:25;;;;;;;17.70;7.30;;;;;;;6.61;93.65;99436.82;111227;1208;99354;-66
2024/02/22 05:57:51;;;;;;;18.90;7.10;;;;;;;6.61;93.43;99433.45;111016;1210;139042;-66
2024/02/22 06:00:18;;;;;;;15.70;7.20;;;;;;;6.64;93.53;99433.34;111002;1211;98958;-66
2024/02/22 06:02:45;;;;;;;17.80;7.90;;;;;;;6.65;93.49;99433.44;111240;1208;99091;-66
2024/02/22 06:05:10;;;;;;;16.20;8.10;;;;;;;6.67;93.53;99423.20;110852;1206;138870;-66
2024/02/22 06:07:36;;;;;;;16.40;7.10;;;;;;;6.68;93.49;99414.13;111157;1208;98914;-66
2024/02/22 06:10:02;;;;;;;21.00;7.80;;;;;;;6.68;93.29;99404.73;110949;1210;139442;-66
2024/02/22 06:12:27;;;;;;;19.80;7.50;;;;;;;6.70;93.45;99404.77;111117;1206;99608;-66
2024/02/22 06:14:52;;;;;;;15.80;6.40;;;;;;;6.72;93.41;99402.22;111047;1206;98936;-67
2024/02/22 06:17:17;;;;;;;16.70;6.90;;;;;;;6.74;93.48;99406.75;111092;1209;138826;-67
2024/02/22 06:19:43;;;;;;;16.80;7.30;;;;;;;6.77;93.50;99408.20;111202;1211;98943;-66
2024/02/22 06:22:09;;;;;;;18.30;6.80;;;;;;;6.79;93.50;99409.14;111068;1206;140186;-66
2024/02/22 06:24:34;;;;;;;18.50;7.50;;;;;;;6.80;93.29;99406.11;111099;1206;99695;-66
2024/02/22 06:27:00;;;;;;;21.20;6.70;;;;;;;6.79;93.33;99411.27;111037;1211;99000;-66
2024/02/22 06:29:25;;;;;;;13.40;6.80;;;;;;;6.83;93.40;99410.75;111127;1206;140092;-66
2024/02/22 06:31:50;;;;;;;16.40;6.40;;;;;;;6.86;93.47;99409.55;111125;1206;99048;-66
2024/02/22 06:34:15;;;;;;;16.50;6.50;;;;;;;6.89;93.35;99408.17;111075;1206;139055;-66
2024/02/22 06:36:40;;;;;;;10.00;5.80;;;;;;;6.92;93.30;99399.67;111073;1205;99001;-66
2024/02/22 06:39:08;;;;;;;15.90;6.20;;;;;;;6.93;93.34;99393.58;111088;1206;98925;-66
2024/02/22 06:41:34;;;;;;;12.00;6.20;;;;;;;6.95;93.21;99390.11;110996;1210;138851;-66
2024/02/22 06:44:00;;;;;;;14.20;6.10;;;;;;;6.97;93.25;99384.16;111114;1209;99641;-66
2024/02/22 06:46:27;;;;;;;11.20;5.00;;;;;;;6.98;93.16;99376.64;110956;1206;138775;-67
2024/02/22 06:48:53;;;;;;;15.60;5.40;;;;;;;6.98;93.12;99372.90;111127;1206;99123;-66
2024/02/22 06:51:20;;;;;;;16.10;4.90;;;;;;;6.99;93.12;99371.43;111116;1206;98911;-66
2024/02/22 06:53:46;;;;;;;12.80;5.80;;;;;;;7.00;93.05;99368.00;111038;1206;140153;-66
2024/02/22 06:56:11;;;;;;;12.50;4.80;;;;;;;7.02;92.98;99366.51;111111;1206;98967;-67
2024/02/22 06:58:36;;;;;;;11.20;5.40;;;;;;;7.03;93.02;99367.88;110885;1207;139062;-67
2024/02/22 07:01:02;;;;;;;17.60;5.90;;;;;;;7.04;92.97;99361.40;111171;1210;98949;-66
2024/02/22 07:03:28;;;;;;;18.50;5.60;;;;;;;7.05;92.95;99354.09;111077;1209;99081;-66
2024/02/22 07:05:53;;;;;;;10.60;4.90;;;;;;;7.07;92.93;99358.42;110994;1206;138656;-66
2024/02/22 07:08:19;;;;;;;15.00;5.50;;;;;;;7.08;92.89;99361.77;111200;1206;99041;-67
2024/02/22 07:10:44;;;;;;;13.90;6.10;;;;;;;7.08;92.78;99358.73;111018;1209;138414;-66
2024/02/22 07:13:10;;;;;;;12.80;4.50;;;;;;;7.08;92.72;99360.50;111018;1209;99016;-66
2024/02/22 07:15:35;;;;;;;9.40;4.10;;;;;;;7.10;92.86;99357.92;111205;1205;98928;-66
2024/02/22 07:18:00;;;;;;;10.70;5.20;;;;;;;7.12;92.82;99356.04;110975;1209;138959;-67
2024/02/22 07:20:26;;;;;;;13.20;5.60;;;;;;;7.14;92.77;99346.35;111140;1210;99176;-66
2024/02/22 07:22:52;;;;;;;17.30;5.50;;;;;;;7.17;92.76;99340.52;110941;1206;138641;-66
2024/02/22 07:25:20;;;;;;;11.20;4.60;;;;;;;7.19;92.68;99335.98;111191;1206;98924;-66
2024/02/22 07:27:46;;;;;;;16.30;4.50;;;;;;;7.21;92.71;99330.58;111129;1209;99010;-66
2024/02/22 07:30:13;;;;;;;12.30;4.90;;;;;;;7.22;92.62;99328.70;111075;1206;99038;-67
2024/02/22 07:32:39;;;;;;;12.20;4.20;;;;;;;7.23;92.61;99324.04;111144;1206;99057;-67
2024/02/22 07:35:05;;;;;;;10.90;4.60;;;;;;;7.25;92.61;99317.37;111012;1206;140026;-67
2024/02/22 07:37:31;;;;;;;10.30;4.50;;;;;;;7.28;92.66;99312.27;111214;1209;99114;-67
2024/02/22 07:39:56;;;;;;;14.20;5.40;;;;;;;7.31;92.66;99313.31;110897;1206;139132;-67
2024/02/22 07:42:22;;;;;;;9.70;4.00;;;;;;;7.34;92.54;99306.77;111161;1211;99790;-67
2024/02/22 07:44:48;;;;;;;10.00;4.20;;;;;;;7.37;92.61;99304.48;111103;1209;98942;-66
2024/02/22 07:47:13;;;;;;;9.20;4.40;;;;;;;7.40;92.68;99304.67;111041;1211;138831;-67
2024/02/22 07:49:38;;;;;;;12.60;4.20;;;;;;;7.42;92.61;99299.25;111229;1206;99089;-67
2024/02/22 07:52:06;;;;;;;12.30;3.90;;;;;;;7.44;92.48;99296.14;110929;1206;139258;-67
2024/02/22 07:54:31;;;;;;;8.60;3.60;;;;;;;7.46;92.57;99289.07;111094;1206;98945;-67
2024/02/22 07:56:56;;;;;;;8.30;4.10;;;;;;;7.51;92.55;99283.88;111119;1210;99050;-67
2024/02/22 07:59:22;;;;;;;7.00;3.30;;;;;;;7.56;92.57;99282.90;110953;1206;139212;-67
2024/02/22 08:01:47;;;;;;;10.50;3.80;;;;;;;7.61;92.60;99277.98;111111;1206;98927;-67
2024/02/22 08:04:13;;;;;;;10.00;3.80;;;;;;;7.65;92.57;99276.75;111126;1206;140553;-67
2024/02/22 08:06:38;;;;;;;7.30;4.00;;;;;;;7.67;92.67;99273.39;111128;1206;98979;-67
2024/02/22 08:09:04;;;;;;;10.90;3.70;;;;;;;7.70;92.52;99271.48;111144;1205;98940;-67
2024/02/22 08:11:29;;;;;;;9.20;3.60;;;;;;;7.72;92.47;99266.23;110988;1209;138981;-67
2024/02/22 08:13:55;;;;;;;9.90;4.40;;;;;;;7.74;92.43;99264.52;111132;1206;99051;-67
2024/02/22 08:16:20;;;;;;;8.40;3.40;;;;;;;7.74;92.38;99263.07;111095;1206;139251;-67
2024/02/22 08:18:45;;;;;;;9.60;4.30;;;;;;;7.75;92.36;99261.22;111092;1206;99012;-67
2024/02/22 08:21:11;;;;;;;10.10;4.20;;;;;;;7.77;92.46;99259.16;111109;1206;98982;-67
2024/02/22 08:23:37;;;;;;;13.30;4.10;;;;;;;7.78;92.37;99251.13;111058;1206;140190;-67
2024/02/22 08:26:03;;;;;;;19.40;5.90;;;;;;;7.79;92.32;99255.34;111100;1206;99057;-67
2024/02/22 08:28:29;;;;;;;14.70;3.70;;;;;;;7.80;92.39;99250.23;111115;1210;138843;-67
2024/02/22 08:30:56;;;;;;;10.20;3.80;;;;;;;7.82;92.39;99242.52;111199;1206;113567;-67
2024/02/22 08:33:29;;;;;;;8.40;3.80;;;;;;;7.84;92.33;99238.14;111289;1210;98978;-66
2024/02/22 08:35:56;;;;;;;8.90;3.80;;;;;;;7.87;92.40;99231.55;111110;1211;138789;-67
2024/02/22 08:38:22;;;;;;;6.90;3.50;;;;;;;7.90;92.46;99222.54;111148;1211;98939;-66
2024/02/22 08:40:48;;;;;;;8.00;3.60;;;;;;;7.92;92.40;99220.08;110998;1212;138624;-66
2024/02/22 08:43:14;;;;;;;7.60;3.30;;;;;;;7.95;92.35;99215.14;111231;1210;99012;-67
2024/02/22 08:45:40;;;;;;;8.10;3.50;;;;;;;7.96;92.32;99212.42;111109;1206;107267;-67
2024/02/22 08:48:06;;;;;;;7.80;3.80;;;;;;;7.96;92.29;99213.63;110947;1206;139069;-67
2024/02/22 08:50:31;;;;;;;8.30;4.30;;;;;;;7.99;92.41;99206.70;111162;1211;98933;-66
2024/02/22 08:52:57;;;;;;;5.70;3.00;;;;;;;8.01;92.28;99205.15;111054;1211;139220;-67
2024/02/22 08:55:22;;;;;;;11.30;3.00;;;;;;;8.03;92.18;99200.45;111186;1206;99108;-67
2024/02/22 08:57:48;;;;;;;8.10;2.80;;;;;;;8.05;92.22;99197.14;111154;1206;99072;-67
2024/02/22 09:00:15;;;;;;;10.00;2.90;;;;;;;8.06;92.25;99195.27;110989;1210;138350;-67
2024/02/22 09:02:41;;;;;;;9.20;3.10;;;;;;;8.10;92.24;99189.23;111160;1206;98929;-67
2024/02/22 09:05:06;;;;;;;7.40;3.50;;;;;;;8.11;92.20;99187.17;111018;1206;138769;-68
2024/02/22 09:07:34;;;;;;;6.70;3.00;;;;;;;8.13;92.25;99184.73;111259;1210;98917;-67
2024/02/22 09:10:00;;;;;;;7.10;2.90;;;;;;;8.16;92.26;99177.08;110975;1210;138912;-67
2024/02/22 09:12:26;;;;;;;5.20;2.90;;;;;;;8.19;92.22;99173.06;111233;1206;99018;-67
2024/02/22 09:14:51;;;;;;;8.40;3.20;;;;;;;8.20;92.21;99170.83;111213;1206;98980;-67
2024/02/22 09:17:17;;;;;;;12.70;3.90;;;;;;;8.22;92.13;99172.00;111126;1209;138599;-67
2024/02/22 09:19:42;;;;;;;7.70;3.40;;;;;;;8.24;92.14;99165.64;111148;1208;99036;-67
2024/02/22 09:22:08;;;;;;;9.40;3.70;;;;;;;8.26;92.30;99163.91;111027;1205;139914;-67
2024/02/22 09:24:33;;;;;;;13.90;3.60;;;;;;;8.29;92.33;99158.38;111083;1210;97814;-67
2024/02/22 09:26:59;;;;;;;8.60;3.90;;;;;;;8.31;92.16;99154.54;111079;1205;98931;-67
2024/02/22 09:29:26;;;;;;;14.90;4.00;;;;;;;8.33;92.24;99153.02;111056;1209;138688;-67
2024/02/22 09:31:55;;;;;;;10.50;3.70;;;;;;;8.35;92.24;99155.60;111103;1222;107843;-67
2024/02/22 09:34:22;;;;;;;6.90;3.50;;;;;;;8.37;92.26;99148.90;110988;1209;138126;-67
2024/02/22 09:36:49;;;;;;;7.60;2.80;;;;;;;8.39;92.19;99145.89;111110;1206;99024;-67
2024/02/22 09:39:15;;;;;;;11.10;3.40;;;;;;;8.41;92.27;99145.27;111104;1205;99377;-68
2024/02/22 09:41:42;;;;;;;8.60;3.00;;;;;;;8.42;92.25;99138.43;111038;1206;139847;-67
2024/02/22 09:44:10;;;;;;;6.60;2.90;;;;;;;8.43;92.23;99135.92;111264;1209;99026;-67
2024/02/22 09:46:37;;;;;;;9.30;3.30;;;;;;;8.42;92.20;99132.36;110994;1206;139071;-67
2024/02/22 09:49:02;;;;;;;7.80;3.20;;;;;;;8.44;92.24;99130.33;111074;1206;98931;-67
2024/02/22 09:51:30;;;;;;;7.50;3.40;;;;;;;8.44;92.17;99129.96;111175;1206;99605;-67
2024/02/22 09:53:56;;;;;;;10.50;4.00;;;;;;;8.43;92.14;99130.54;110967;1209;138612;-66
2024/02/22 09:56:24;;;;;;;9.20;3.50;;;;;;;8.41;92.08;99124.42;111298;1210;98957;-66
2024/02/22 09:58:49;;;;;;;9.50;4.00;;;;;;;8.41;92.22;99124.64;111061;1209;140402;-66
2024/02/22 10:01:14;;;;;;;10.40;4.00;;;;;;;8.42;92.24;99123.86;111185;1206;99072;-66
2024/02/22 10:03:40;;;;;;;7.30;2.70;;;;;;;8.42;92.23;99121.68;111135;1210;99020;-66
2024/02/22 10:06:19;;;;;;;7.90;2.80;;;;;;;8.40;92.21;99118.45;111024;1209;140345;-66
2024/02/22 10:08:47;;;;;;;6.70;3.70;;;;;;;8.40;92.35;99119.51;111295;1208;112922;-66
2024/02/22 10:11:13;;;;;;;6.40;3.00;;;;;;;8.41;92.23;99116.60;111006;1206;139145;-66
2024/02/22 10:13:38;;;;;;;8.00;3.40;;;;;;;8.39;92.32;99114.02;111148;1210;98917;-66
2024/02/22 10:16:14;;;;;;;10.20;3.80;;;;;;;8.40;92.44;99110.94;111055;1210;138953;-66
2024/02/22 10:18:40;;;;;;;22.70;11.50;;;;;;;8.41;92.45;99110.73;111253;1206;112390;-66
2024/02/22 10:21:17;;;;;;;36.40;21.30;;;;;;;8.40;92.42;99110.41;111268;1210;99005;-66
2024/02/22 10:24:00;;;;;;;26.20;14.90;;;;;;;8.40;92.44;99108.48;111104;1207;139186;-66
2024/02/22 10:26:26;;;;;;;8.20;3.70;;;;;;;8.41;92.51;99100.04;111170;1206;97532;-67
2024/02/22 10:28:53;;;;;;;11.60;4.10;;;;;;;8.43;92.63;99095.30;111063;1206;138991;-66
2024/02/22 10:31:22;;;;;;;6.90;3.40;;;;;;;8.43;92.58;99091.77;111257;1210;99430;-69
2024/02/22 10:33:48;;;;;;;6.80;3.80;;;;;;;8.44;92.66;99086.86;111222;1206;99044;-66
2024/02/22 10:36:16;;;;;;;7.50;3.70;;;;;;;8.43;92.61;99087.63;111064;1206;138655;-66
2024/02/22 10:38:41;;;;;;;5.30;3.10;;;;;;;8.41;92.64;99080.13;111216;1208;99056;-67
2024/02/22 10:41:11;;;;;;;6.80;3.10;;;;;;;8.41;92.74;99075.34;111092;1210;138715;-66
2024/02/22 10:43:40;;;;;;;7.80;3.80;;;;;;;8.41;92.77;99070.30;111149;1210;99885;-66
2024/02/22 10:46:08;;;;;;;14.40;4.00;;;;;;;8.41;92.87;99064.07;110977;1206;138873;-66
2024/02/22 10:48:36;;;;;;;6.00;3.30;;;;;;;8.42;92.90;99059.23;111225;1209;99026;-66
2024/02/22 10:51:06;;;;;;;6.70;3.50;;;;;;;8.41;92.98;99053.95;111101;1206;99304;-66
2024/02/22 10:53:39;;;;;;;6.70;3.30;;;;;;;8.43;93.04;99049.58;111149;1206;139422;-66
2024/02/22 10:56:06;;;;;;;9.70;4.20;;;;;;;8.43;93.05;99043.67;111083;1208;99389;-66
2024/02/22 10:58:35;;;;;;;8.20;3.70;;;;;;;8.45;93.07;99039.48;111124;1210;138986;-66
2024/02/22 11:01:07;;;;;;;5.80;3.50;;;;;;;8.43;93.12;99033.20;111070;1210;99037;-66
2024/02/22 11:03:35;;;;;;;26.70;12.90;;;;;;;8.41;93.18;99029.38;111154;1205;98938;-66
2024/02/22 11:06:06;;;;;;;8.60;5.20;;;;;;;8.42;93.26;99027.56;110984;1209;139273;-66
2024/02/22 11:08:32;;;;;;;21.80;13.20;;;;;;;8.42;93.36;99021.83;111132;1206;100320;-67
2024/02/22 11:11:04;;;;;;;8.50;4.70;;;;;;;8.41;93.42;99019.06;110946;1209;139138;-66
2024/02/22 11:13:29;;;;;;;9.70;3.90;;;;;;;8.41;93.45;99018.35;111163;1210;99042;-66
2024/02/22 11:15:55;;;;;;;10.80;3.70;;;;;;;8.40;93.52;99014.50;110987;1206;139847;-66